Time;durP1;ratioP1;P1;durP2;ratioP2;P2;SDS_P1;SDS_P2;PMS_P1;PMS_P2;Temp;Humidity;BMP_temperature;BMP_pressure;BME280_temperature;BME280_humidity;BME280_pressure;Samples;Min_cycle;Max_cycle;Signal;HPM_P1;HPM_P2
2021/12/06 09:15:02;;;;;;;11.37;5.33;;;4.00;99.90;;;;;;4968502;23;20242;-73
2021/12/06 09:17:29;;;;;;;9.67;5.10;;;4.00;99.90;;;;;;4955790;28;20204;-74
2021/12/06 09:19:56;;;;;;;8.13;4.57;;;3.90;99.90;;;;;;4956152;28;20222;-77
2021/12/06 09:22:25;;;;;;;10.47;5.37;;;3.80;99.90;;;;;;4956158;28;20211;-72
2021/12/06 09:24:52;;;;;;;10.83;5.63;;;3.90;99.90;;;;;;4956506;28;20215;-73
2021/12/06 09:27:20;;;;;;;11.73;5.67;;;3.80;99.90;;;;;;4966928;28;20204;-74
2021/12/06 09:29:47;;;;;;;12.83;5.67;;;3.60;99.90;;;;;;4971009;28;20235;-73
2021/12/06 09:32:16;;;;;;;14.50;6.67;;;3.70;99.90;;;;;;4958018;28;20212;-76
2021/12/06 09:34:46;;;;;;;14.13;6.43;;;3.80;99.90;;;;;;4955117;28;20259;-75
2021/12/06 09:37:13;;;;;;;16.93;7.17;;;3.90;99.90;;;;;;4955359;28;20212;-73
2021/12/06 09:39:41;;;;;;;12.07;5.73;;;3.90;99.90;;;;;;4955826;28;20218;-72
2021/12/06 09:42:08;;;;;;;11.97;6.20;;;4.20;99.90;;;;;;4955465;28;20204;-74
2021/12/06 09:44:35;;;;;;;14.00;6.80;;;4.30;99.90;;;;;;4955072;28;20215;-71
2021/12/06 09:47:03;;;;;;;12.90;7.30;;;4.20;99.90;;;;;;4955938;28;20226;-73
2021/12/06 09:49:31;;;;;;;12.03;6.37;;;4.20;99.90;;;;;;4956927;28;20204;-76
2021/12/06 09:52:04;;;;;;;15.20;6.90;;;4.10;99.90;;;;;;4957224;28;20239;-76
2021/12/06 09:54:33;;;;;;;13.23;6.57;;;4.10;99.90;;;;;;4957120;28;20235;-78
2021/12/06 09:57:03;;;;;;;14.30;6.63;;;4.30;99.90;;;;;;4957005;28;20266;-78
2021/12/06 09:59:31;;;;;;;16.60;7.07;;;4.60;99.90;;;;;;4957548;28;20295;-78
2021/12/06 10:02:02;;;;;;;16.63;7.07;;;4.50;99.90;;;;;;4956849;28;20228;-79
2021/12/06 10:04:33;;;;;;;15.93;7.40;;;4.50;99.90;;;;;;4957086;28;20296;-77
2021/12/06 10:07:01;;;;;;;13.30;7.00;;;4.50;99.90;;;;;;4969979;28;20207;-75
2021/12/06 10:09:29;;;;;;;11.63;6.30;;;4.40;99.90;;;;;;4976030;28;20211;-78
2021/12/06 10:12:01;;;;;;;13.50;6.30;;;4.50;99.90;;;;;;4975998;28;20231;-77
2021/12/06 10:14:28;;;;;;;14.20;7.33;;;4.50;99.90;;;;;;4975963;28;20235;-79
2021/12/06 10:16:55;;;;;;;12.80;6.33;;;4.50;99.90;;;;;;4975492;28;20207;-75
2021/12/06 10:19:25;;;;;;;15.40;6.30;;;4.60;99.90;;;;;;4968680;28;20207;-79
2021/12/06 10:21:54;;;;;;;12.03;5.53;;;4.50;99.90;;;;;;4962660;28;20316;-77
2021/12/06 10:24:23;;;;;;;13.47;6.03;;;4.40;99.90;;;;;;4965422;28;20204;-77
2021/12/06 10:26:51;;;;;;;10.77;5.77;;;4.30;99.90;;;;;;4957243;28;20207;-75
2021/12/06 10:29:22;;;;;;;12.10;6.20;;;4.30;99.90;;;;;;4963369;28;20261;-76
2021/12/06 10:31:52;;;;;;;11.13;6.23;;;4.10;99.90;;;;;;4971861;28;20231;-78
2021/12/06 10:34:24;;;;;;;11.07;6.17;;;4.00;99.90;;;;;;4956323;28;20239;-77
2021/12/06 10:36:53;;;;;;;13.67;6.03;;;4.10;99.90;;;;;;4959285;28;20210;-77
2021/12/06 10:39:22;;;;;;;14.17;5.93;;;4.20;99.90;;;;;;4962911;28;20200;-77
2021/12/06 10:41:50;;;;;;;15.13;5.87;;;4.20;99.90;;;;;;4966053;28;20310;-79
2021/12/06 10:44:18;;;;;;;12.40;6.17;;;4.10;99.90;;;;;;4964372;28;20207;-77
2021/12/06 10:46:48;;;;;;;11.17;5.47;;;4.20;99.90;;;;;;4965197;28;20215;-74
2021/12/06 10:49:17;;;;;;;14.00;6.90;;;4.20;99.90;;;;;;4962209;28;20207;-77
2021/12/06 10:51:44;;;;;;;11.83;5.93;;;4.20;99.90;;;;;;4963002;28;20707;-78
2021/12/06 10:54:20;;;;;;;10.40;6.03;;;4.20;99.90;;;;;;4963679;28;20287;-77
2021/12/06 10:56:49;;;;;;;16.40;7.80;;;4.30;99.90;;;;;;4964552;28;20669;-78
2021/12/06 10:59:19;;;;;;;10.97;5.97;;;4.20;99.90;;;;;;4962767;28;20659;-76
2021/12/06 11:01:47;;;;;;;17.50;7.00;;;4.30;99.90;;;;;;4964027;28;20310;-76
2021/12/06 11:04:17;;;;;;;14.63;7.10;;;4.40;99.90;;;;;;4963590;28;20200;-77
2021/12/06 11:06:46;;;;;;;11.30;6.60;;;4.40;99.90;;;;;;4965589;28;20199;-77
2021/12/06 11:09:16;;;;;;;10.77;6.40;;;4.50;99.90;;;;;;4960355;28;20282;-77
2021/12/06 11:11:45;;;;;;;13.27;6.30;;;4.60;99.90;;;;;;4961641;28;20716;-76
2021/12/06 11:14:15;;;;;;;12.37;6.57;;;4.70;99.90;;;;;;4955680;28;20322;-75
2021/12/06 11:16:44;;;;;;;11.27;5.53;;;4.70;99.90;;;;;;4966276;28;20214;-73
2021/12/06 11:19:13;;;;;;;13.10;6.17;;;4.80;99.90;;;;;;4971631;28;20203;-76
2021/12/06 11:21:43;;;;;;;14.60;6.27;;;4.90;99.90;;;;;;4955402;28;20228;-77
2021/12/06 11:24:15;;;;;;;12.63;6.30;;;5.00;99.90;;;;;;4955176;28;20204;-78
2021/12/06 11:26:47;;;;;;;11.53;6.10;;;5.10;99.90;;;;;;4955332;28;20208;-76
2021/12/06 11:29:18;;;;;;;10.03;5.57;;;5.20;99.90;;;;;;4959199;28;20207;-75
2021/12/06 11:31:58;;;;;;;11.30;5.57;;;5.40;99.90;;;;;;4955356;28;20234;-76
2021/12/06 11:34:31;;;;;;;10.20;5.57;;;5.30;99.90;;;;;;4954999;28;20284;-79
2021/12/06 11:36:59;;;;;;;11.87;5.30;;;5.40;99.90;;;;;;4954997;28;20204;-78
2021/12/06 11:39:28;;;;;;;12.07;5.30;;;5.50;99.90;;;;;;4955145;28;20212;-78
2021/12/06 11:41:58;;;;;;;8.43;4.77;;;5.50;99.90;;;;;;4954807;28;20232;-78
2021/12/06 11:44:29;;;;;;;11.90;5.40;;;5.50;99.90;;;;;;4956468;28;20212;-76
2021/12/06 11:47:05;;;;;;;9.10;4.53;;;5.60;99.90;;;;;;4955021;28;20214;-75
2021/12/06 11:49:35;;;;;;;8.47;4.93;;;5.70;99.90;;;;;;4954830;28;20725;-78
2021/12/06 11:52:05;;;;;;;8.30;4.87;;;5.70;99.90;;;;;;4970381;28;20713;-79
2021/12/06 11:54:39;;;;;;;6.93;3.93;;;5.80;99.90;;;;;;4973887;28;20230;-75
2021/12/06 11:57:21;;;;;;;6.83;3.77;;;5.80;99.90;;;;;;4974475;28;20206;-77
2021/12/06 11:59:54;;;;;;;6.10;3.33;;;5.90;99.90;;;;;;4974619;28;20207;-75
2021/12/06 12:02:46;;;;;;;7.63;3.97;;;5.90;99.90;;;;;;4964825;28;20269;-77
2021/12/06 12:05:33;;;;;;;7.43;3.37;;;6.00;99.90;;;;;;4955062;28;20203;-75
2021/12/06 12:08:10;;;;;;;8.00;4.13;;;6.20;99.90;;;;;;4974435;28;20207;-78
2021/12/06 12:10:44;;;;;;;5.50;3.10;;;6.30;99.90;;;;;;4955453;28;20232;-77
2021/12/06 12:13:14;;;;;;;7.77;3.70;;;6.40;99.90;;;;;;4955236;28;20229;-75
2021/12/06 12:15:41;;;;;;;7.37;3.67;;;6.30;99.90;;;;;;4955061;28;20216;-78
2021/12/06 12:18:08;;;;;;;10.93;3.90;;;6.40;99.90;;;;;;4955059;28;20218;-75
2021/12/06 12:20:36;;;;;;;8.67;3.50;;;6.50;99.90;;;;;;4954457;28;20581;-77
2021/12/06 12:23:08;;;;;;;7.23;3.30;;;6.40;99.90;;;;;;4954440;28;20298;-78
2021/12/06 12:25:39;;;;;;;7.03;3.10;;;6.50;99.90;;;;;;4954334;28;20224;-77
2021/12/06 12:28:18;;;;;;;6.03;3.37;;;6.40;99.90;;;;;;4953635;28;20255;-78
2021/12/06 12:30:45;;;;;;;7.40;3.40;;;6.50;99.90;;;;;;4953967;28;20239;-76
2021/12/06 12:33:13;;;;;;;8.17;2.80;;;6.50;99.90;;;;;;4953881;28;20587;-76
2021/12/06 12:35:42;;;;;;;7.53;2.80;;;6.60;99.90;;;;;;4953864;28;20714;-75
2021/12/06 12:38:12;;;;;;;6.97;3.33;;;6.70;99.90;;;;;;4949182;28;20212;-73
2021/12/06 12:40:42;;;;;;;10.47;2.53;;;6.70;99.90;;;;;;4952565;28;20224;-71
2021/12/06 12:43:13;;;;;;;5.87;2.97;;;6.60;99.90;;;;;;4971027;28;20207;-72
2021/12/06 12:45:44;;;;;;;6.57;2.73;;;6.60;99.90;;;;;;4963688;28;20211;-72
2021/12/06 12:48:12;;;;;;;4.80;2.60;;;6.60;99.90;;;;;;4952987;28;20204;-71
2021/12/06 12:50:39;;;;;;;4.30;2.17;;;6.50;99.90;;;;;;4953299;28;20223;-72
2021/12/06 12:53:08;;;;;;;6.07;2.33;;;6.40;99.90;;;;;;4962494;28;20292;-74
2021/12/06 12:55:38;;;;;;;4.87;2.53;;;6.50;99.90;;;;;;4958061;28;20251;-71
2021/12/06 12:58:15;;;;;;;4.67;2.40;;;6.60;99.90;;;;;;4956173;28;20539;-72
2021/12/06 13:00:49;;;;;;;3.50;2.10;;;6.60;99.90;;;;;;4951941;28;20254;-72
2021/12/06 13:03:38;;;;;;;3.83;1.60;;;6.40;99.90;;;;;;4952208;28;20670;-73
2021/12/06 13:06:28;;;;;;;3.47;1.63;;;6.60;99.90;;;;;;4951400;28;20213;-74
2021/12/06 13:08:58;;;;;;;4.10;2.07;;;6.60;99.90;;;;;;4954322;28;20227;-73
2021/12/06 13:11:28;;;;;;;3.80;2.03;;;6.60;99.90;;;;;;4963089;28;20581;-75
2021/12/06 13:13:58;;;;;;;6.23;2.70;;;6.60;99.90;;;;;;4963262;28;20232;-75
2021/12/06 13:16:47;;;;;;;4.43;1.90;;;6.50;99.90;;;;;;4953391;28;20298;-74
2021/12/06 13:19:21;;;;;;;3.63;1.70;;;6.60;99.90;;;;;;4955609;28;20227;-75
2021/12/06 13:21:56;;;;;;;4.43;1.70;;;6.70;99.90;;;;;;4956057;28;20239;-73
2021/12/06 13:24:49;;;;;;;4.40;1.87;;;6.70;99.90;;;;;;4961965;28;20737;-74
2021/12/06 13:27:32;;;;;;;5.80;2.17;;;6.80;99.90;;;;;;4954765;28;20571;-78
2021/12/06 13:30:07;;;;;;;3.23;1.77;;;6.80;99.90;;;;;;4954744;28;20204;-74
2021/12/06 13:32:38;;;;;;;3.67;1.80;;;6.80;99.90;;;;;;4956231;28;20203;-74
2021/12/06 13:35:25;;;;;;;3.60;1.60;;;6.70;99.90;;;;;;4958282;28;20240;-84
2021/12/06 13:38:16;;;;;;;2.63;1.70;;;6.60;99.90;;;;;;4954913;28;20212;-77
2021/12/06 13:41:04;;;;;;;5.47;1.60;;;6.80;99.90;;;;;;4954973;28;20220;-75
2021/12/06 13:43:34;;;;;;;4.07;2.40;;;6.80;99.90;;;;;;4956140;28;20658;-74
2021/12/06 13:46:06;;;;;;;4.60;1.60;;;6.90;99.90;;;;;;4957659;28;20297;-73
2021/12/06 13:48:37;;;;;;;3.10;1.80;;;6.80;99.90;;;;;;4959106;28;20562;-74
2021/12/06 13:51:27;;;;;;;3.77;1.70;;;6.80;99.90;;;;;;4957440;28;20231;-73
2021/12/06 13:53:55;;;;;;;3.70;1.73;;;7.00;99.90;;;;;;4953781;28;20671;-73
2021/12/06 13:56:38;;;;;;;4.93;1.73;;;7.10;99.90;;;;;;4954294;28;20204;-75
2021/12/06 13:59:05;;;;;;;6.20;2.10;;;6.90;99.90;;;;;;4955013;28;20214;-73
2021/12/06 14:01:35;;;;;;;3.57;1.93;;;6.80;99.90;;;;;;4954951;28;20765;-72
2021/12/06 14:04:04;;;;;;;3.10;1.70;;;6.70;99.90;;;;;;4954526;28;20274;-75
2021/12/06 14:06:42;;;;;;;4.97;1.70;;;6.50;99.90;;;;;;4960676;28;20213;-72
2021/12/06 14:09:09;;;;;;;3.03;1.90;;;6.60;99.90;;;;;;4959628;28;20203;-72
2021/12/06 14:11:36;;;;;;;3.43;1.73;;;6.70;99.90;;;;;;4962481;28;20222;-72
2021/12/06 14:14:10;;;;;;;4.10;1.90;;;6.80;99.90;;;;;;4959994;28;20219;-71
2021/12/06 14:16:39;;;;;;;6.63;2.60;;;6.60;99.90;;;;;;4958134;28;20292;-72
2021/12/06 14:19:06;;;;;;;3.23;1.97;;;6.50;99.90;;;;;;4960310;28;20215;-70
2021/12/06 14:21:36;;;;;;;3.00;1.87;;;6.50;99.90;;;;;;4962830;28;20577;-71
2021/12/06 14:24:04;;;;;;;3.60;1.80;;;6.50;99.90;;;;;;4958461;28;20215;-72
2021/12/06 14:26:33;;;;;;;3.27;1.63;;;6.60;99.90;;;;;;4952621;28;20218;-71
2021/12/06 14:29:00;;;;;;;2.87;1.70;;;6.60;99.90;;;;;;4957549;28;20234;-69
2021/12/06 14:31:29;;;;;;;3.37;1.70;;;6.60;99.90;;;;;;4958789;28;20255;-69
2021/12/06 14:34:04;;;;;;;3.87;2.10;;;6.70;99.90;;;;;;4956398;28;20212;-70
2021/12/06 14:36:31;;;;;;;3.87;2.03;;;6.50;99.90;;;;;;4961183;28;20209;-71
2021/12/06 14:39:08;;;;;;;3.90;1.97;;;6.40;99.90;;;;;;4956802;28;20212;-75
2021/12/06 14:41:35;;;;;;;3.33;1.80;;;6.40;99.90;;;;;;4954181;28;20220;-76
2021/12/06 14:44:02;;;;;;;4.17;1.83;;;6.30;99.90;;;;;;4953336;28;20211;-74
2021/12/06 14:46:29;;;;;;;4.53;2.20;;;6.30;99.90;;;;;;4955182;28;20223;-76
2021/12/06 14:48:56;;;;;;;4.80;2.27;;;6.20;99.90;;;;;;4953616;28;20212;-76
2021/12/06 14:51:28;;;;;;;3.20;2.10;;;6.10;99.90;;;;;;4962288;28;20233;-77
2021/12/06 14:54:02;;;;;;;5.00;2.40;;;6.00;99.90;;;;;;4964510;28;20291;-76
2021/12/06 14:56:43;;;;;;;6.50;3.07;;;5.90;99.90;;;;;;4973688;28;20215;-75
2021/12/06 14:59:10;;;;;;;7.53;2.90;;;5.90;99.90;;;;;;4975037;28;20203;-75
2021/12/06 15:01:37;;;;;;;5.33;2.30;;;6.00;99.90;;;;;;4970180;28;20311;-76
2021/12/06 15:04:15;;;;;;;7.73;2.87;;;5.90;99.90;;;;;;4955612;28;20208;-75
2021/12/06 15:06:44;;;;;;;5.10;2.33;;;5.80;99.90;;;;;;4955833;28;20208;-76
2021/12/06 15:09:13;;;;;;;4.30;2.23;;;5.70;99.90;;;;;;4955463;28;20214;-74
2021/12/06 15:11:40;;;;;;;7.07;3.10;;;5.60;99.90;;;;;;4955334;28;20228;-75
2021/12/06 15:14:10;;;;;;;5.53;2.80;;;5.50;99.90;;;;;;4976333;23;20651;-81
2021/12/06 15:16:38;;;;;;;6.87;2.70;;;5.40;99.90;;;;;;4974595;28;20203;-79
2021/12/06 15:19:09;;;;;;;4.73;2.60;;;5.40;99.90;;;;;;4974849;28;20215;-79
2021/12/06 15:21:37;;;;;;;5.33;3.13;;;5.30;99.90;;;;;;4974680;28;20231;-81
2021/12/06 15:24:09;;;;;;;4.90;2.70;;;5.30;99.90;;;;;;4964341;28;20239;-75
2021/12/06 15:26:42;;;;;;;4.97;2.90;;;5.30;99.90;;;;;;4955601;28;20212;-80
2021/12/06 15:29:11;;;;;;;6.73;2.90;;;5.30;99.90;;;;;;4955262;28;20571;-79
2021/12/06 15:31:40;;;;;;;6.63;2.70;;;5.20;99.90;;;;;;4954191;28;20224;-80
2021/12/06 15:34:07;;;;;;;7.07;2.83;;;5.30;99.90;;;;;;4955328;28;20298;-79
2021/12/06 15:36:34;;;;;;;9.37;3.20;;;5.40;99.90;;;;;;4955018;28;20240;-78
2021/12/06 15:39:07;;;;;;;5.20;2.60;;;5.30;99.90;;;;;;4954751;28;20219;-79
2021/12/06 15:41:38;;;;;;;3.83;2.07;;;5.30;99.90;;;;;;4954575;28;20232;-77
2021/12/06 15:44:08;;;;;;;5.30;2.80;;;5.30;99.90;;;;;;4955932;28;20203;-76
2021/12/06 15:46:41;;;;;;;6.23;3.20;;;5.30;99.90;;;;;;4961279;28;20214;-76
2021/12/06 15:49:08;;;;;;;5.87;2.70;;;5.30;99.90;;;;;;4954555;28;20210;-80
2021/12/06 15:51:38;;;;;;;5.60;2.90;;;5.40;99.90;;;;;;4953989;28;20239;-78
2021/12/06 15:54:09;;;;;;;7.77;3.23;;;5.30;99.90;;;;;;4954026;28;20230;-76
2021/12/06 15:56:38;;;;;;;5.53;3.17;;;5.20;99.90;;;;;;4954247;28;20236;-76
2021/12/06 15:59:07;;;;;;;9.80;3.13;;;5.20;99.90;;;;;;4962336;28;20204;-76
2021/12/06 16:01:40;;;;;;;4.53;2.47;;;5.20;99.90;;;;;;4972358;28;20229;-74
2021/12/06 16:04:08;;;;;;;4.17;2.80;;;5.20;99.90;;;;;;4967239;28;20208;-75
2021/12/06 16:06:36;;;;;;;7.33;3.47;;;5.20;99.90;;;;;;4953095;28;20303;-83
2021/12/06 16:09:13;;;;;;;5.47;3.00;;;5.20;99.90;;;;;;4966043;28;20258;-74
2021/12/06 16:11:42;;;;;;;8.93;2.93;;;5.10;99.90;;;;;;4972884;28;20282;-75
2021/12/06 16:14:09;;;;;;;6.30;3.37;;;5.10;99.90;;;;;;4971519;28;20302;-79
2021/12/06 16:16:43;;;;;;;6.10;2.90;;;5.10;99.90;;;;;;4972745;28;20235;-79
2021/12/06 16:19:14;;;;;;;6.70;3.10;;;5.10;99.90;;;;;;4972762;28;20614;-76
2021/12/06 16:21:43;;;;;;;6.47;3.30;;;5.20;99.90;;;;;;4967660;28;20274;-80
2021/12/06 16:24:14;;;;;;;9.27;3.43;;;5.30;99.90;;;;;;4953044;28;20208;-75
2021/12/06 16:26:44;;;;;;;5.13;2.93;;;5.30;99.90;;;;;;4953524;28;20216;-76
2021/12/06 16:29:15;;;;;;;6.63;3.00;;;5.30;99.90;;;;;;4966770;28;20618;-76
2021/12/06 16:31:44;;;;;;;4.17;2.53;;;5.20;99.90;;;;;;4974078;28;20227;-84
2021/12/06 16:34:13;;;;;;;7.10;3.30;;;5.20;99.90;;;;;;4967833;28;20320;-73
2021/12/06 16:36:42;;;;;;;9.43;3.30;;;5.20;99.90;;;;;;4953158;28;20718;-73
2021/12/06 16:39:28;;;;;;;5.20;2.77;;;5.10;99.90;;;;;;4966339;28;20218;-74
2021/12/06 16:41:57;;;;;;;4.10;2.40;;;5.10;99.90;;;;;;4961747;28;20224;-77
2021/12/06 16:44:29;;;;;;;5.90;2.53;;;4.90;99.90;;;;;;4952757;28;20215;-75
2021/12/06 16:46:58;;;;;;;6.73;2.80;;;4.70;99.90;;;;;;4953097;28;20247;-73
2021/12/06 16:49:28;;;;;;;7.50;3.10;;;4.60;99.90;;;;;;4967078;28;20207;-80
2021/12/06 16:51:55;;;;;;;4.20;2.27;;;4.50;99.90;;;;;;4973891;28;20229;-81
2021/12/06 16:54:35;;;;;;;6.40;2.67;;;4.50;99.90;;;;;;4970121;28;20214;-75
2021/12/06 16:57:05;;;;;;;6.37;2.67;;;4.40;99.90;;;;;;4970355;28;20691;-74
2021/12/06 16:59:37;;;;;;;4.60;2.23;;;4.30;99.90;;;;;;4972639;28;20211;-78
2021/12/06 17:02:05;;;;;;;5.67;3.00;;;4.20;99.90;;;;;;4975789;28;20294;-73
2021/12/06 17:04:41;;;;;;;5.87;3.03;;;4.20;99.90;;;;;;4973591;28;20242;-74
2021/12/06 17:07:28;;;;;;;4.23;2.30;;;4.10;99.90;;;;;;4975675;28;20211;-73
2021/12/06 17:09:58;;;;;;;5.80;3.07;;;3.90;99.90;;;;;;4971061;28;20211;-73
2021/12/06 17:12:30;;;;;;;9.17;3.17;;;3.80;99.90;;;;;;4959561;28;20207;-72
2021/12/06 17:15:16;;;;;;;7.53;3.67;;;3.80;99.90;;;;;;4955671;28;20212;-75
2021/12/06 17:17:46;;;;;;;3.83;2.50;;;3.60;99.90;;;;;;4957984;28;20222;-79
2021/12/06 17:20:18;;;;;;;5.87;3.23;;;3.60;99.90;;;;;;4974950;28;20231;-73
2021/12/06 17:22:45;;;;;;;5.57;2.50;;;3.60;99.90;;;;;;4973447;28;20258;-73
2021/12/06 17:25:14;;;;;;;4.57;2.77;;;3.50;99.90;;;;;;4960806;28;20216;-78
2021/12/06 17:27:44;;;;;;;4.93;2.40;;;3.50;99.90;;;;;;4957022;28;20214;-72
2021/12/06 17:30:12;;;;;;;5.40;3.37;;;3.50;99.90;;;;;;4975271;28;20234;-73
2021/12/06 17:32:54;;;;;;;7.00;3.53;;;3.40;99.90;;;;;;4975036;28;20247;-72
2021/12/06 17:35:21;;;;;;;7.70;3.10;;;3.30;99.90;;;;;;4958811;28;20235;-71
2021/12/06 17:37:48;;;;;;;5.23;2.87;;;3.30;99.90;;;;;;4958255;28;20210;-71
2021/12/06 17:40:16;;;;;;;5.53;2.90;;;3.30;99.90;;;;;;4976133;28;20231;-73
2021/12/06 17:42:44;;;;;;;5.57;2.60;;;3.30;99.90;;;;;;4975059;28;20670;-74
2021/12/06 17:45:11;;;;;;;4.23;2.33;;;3.30;99.90;;;;;;4960900;28;20208;-76
2021/12/06 17:47:38;;;;;;;6.57;3.40;;;3.10;99.90;;;;;;4959311;28;20233;-79
2021/12/06 17:50:06;;;;;;;7.40;3.90;;;3.00;99.90;;;;;;4974356;28;20230;-79
2021/12/06 17:52:32;;;;;;;6.40;3.40;;;3.20;99.90;;;;;;4974810;28;20211;-78
2021/12/06 17:54:59;;;;;;;6.67;3.50;;;3.20;99.90;;;;;;4965751;28;20208;-72
2021/12/06 17:57:41;;;;;;;4.60;3.20;;;3.10;99.90;;;;;;4955575;28;20215;-80
2021/12/06 18:00:11;;;;;;;4.67;3.30;;;3.20;99.90;;;;;;4955720;28;20231;-78
2021/12/06 18:02:38;;;;;;;6.33;3.40;;;3.10;99.90;;;;;;4956704;28;20218;-81
2021/12/06 18:05:06;;;;;;;9.20;4.00;;;3.00;99.90;;;;;;4956810;28;20212;-82
2021/12/06 18:07:33;;;;;;;7.23;3.87;;;2.90;99.90;;;;;;4956953;28;20204;-82
2021/12/06 18:10:00;;;;;;;4.80;3.13;;;3.10;99.90;;;;;;4960299;28;20208;-75
2021/12/06 18:12:28;;;;;;;7.93;3.70;;;3.20;99.90;;;;;;4956914;28;20204;-81
2021/12/06 18:14:55;;;;;;;6.30;3.73;;;3.10;99.90;;;;;;4956460;28;20223;-80
2021/12/06 18:17:22;;;;;;;6.33;3.97;;;3.00;99.90;;;;;;4956234;28;21013;-84
2021/12/06 18:19:48;;;;;;;6.67;3.73;;;3.00;99.90;;;;;;4971569;28;20211;-83
2021/12/06 18:22:15;;;;;;;11.13;3.87;;;3.10;99.90;;;;;;4975976;28;20207;-83
2021/12/06 18:24:43;;;;;;;5.93;3.17;;;3.00;99.90;;;;;;4975607;28;20662;-82
2021/12/06 18:27:11;;;;;;;5.23;3.27;;;2.90;99.90;;;;;;4968799;28;20685;-83
2021/12/06 18:29:39;;;;;;;7.40;3.83;;;2.80;99.90;;;;;;4955995;28;20219;-85
2021/12/06 18:32:07;;;;;;;8.80;4.13;;;2.80;99.90;;;;;;4963819;28;20234;-84
2021/12/06 18:34:35;;;;;;;7.30;3.73;;;2.70;99.90;;;;;;4963905;28;20211;-74
2021/12/06 18:37:02;;;;;;;5.23;3.63;;;2.60;99.90;;;;;;4964504;28;20231;-82
2021/12/06 18:39:37;;;;;;;7.40;3.93;;;2.60;99.90;;;;;;4966506;28;20229;-87
2021/12/06 18:42:05;;;;;;;6.67;3.70;;;2.70;99.90;;;;;;4975756;28;20269;-86
2021/12/06 18:44:48;;;;;;;6.90;3.43;;;2.70;99.90;;;;;;4972148;28;20207;-88
2021/12/06 18:47:19;;;;;;;6.23;3.53;;;2.50;99.90;;;;;;4975572;28;20211;-76
2021/12/06 18:49:47;;;;;;;5.50;3.10;;;2.50;99.90;;;;;;4975448;28;20212;-86
2021/12/06 18:52:16;;;;;;;5.97;3.70;;;2.50;99.90;;;;;;4976227;28;20211;-86
2021/12/06 18:54:43;;;;;;;7.53;3.87;;;2.50;99.90;;;;;;4975248;28;20242;-86
2021/12/06 18:57:10;;;;;;;5.23;3.10;;;2.40;99.90;;;;;;4975958;28;20246;-85
2021/12/06 18:59:37;;;;;;;5.83;3.20;;;2.50;99.90;;;;;;4958630;28;20211;-86
2021/12/06 19:02:04;;;;;;;6.33;3.47;;;2.50;99.90;;;;;;4956508;28;20316;-85
2021/12/06 19:04:33;;;;;;;6.73;3.40;;;2.50;99.90;;;;;;4955984;28;20218;-75
2021/12/06 19:07:00;;;;;;;5.93;3.20;;;2.40;99.90;;;;;;4955841;28;20212;-83
2021/12/06 19:09:27;;;;;;;6.40;3.80;;;2.40;99.90;;;;;;4956302;28;20204;-76
2021/12/06 19:11:54;;;;;;;7.20;3.40;;;2.30;99.90;;;;;;4955765;28;20220;-86
2021/12/06 19:14:21;;;;;;;6.20;3.13;;;2.40;99.90;;;;;;4958947;28;20258;-84
2021/12/06 19:16:48;;;;;;;7.00;3.60;;;2.50;99.90;;;;;;4959553;28;20235;-83
2021/12/06 19:19:15;;;;;;;7.17;4.03;;;2.40;99.90;;;;;;4960404;28;20207;-84
2021/12/06 19:21:45;;;;;;;6.33;3.40;;;2.50;99.90;;;;;;4961906;28;20224;-85
2021/12/06 19:24:12;;;;;;;9.43;3.50;;;2.50;99.90;;;;;;4963148;28;20662;-82
2021/12/06 19:26:38;;;;;;;7.33;3.83;;;2.60;99.90;;;;;;4974032;28;20202;-84
2021/12/06 19:29:06;;;;;;;5.73;3.67;;;2.80;99.90;;;;;;4966414;28;20222;-85
2021/12/06 19:31:33;;;;;;;7.30;3.53;;;2.80;99.90;;;;;;4955050;28;20227;-83
2021/12/06 19:34:00;;;;;;;5.13;3.03;;;2.70;99.90;;;;;;4954636;28;20216;-75
2021/12/06 19:36:27;;;;;;;7.57;3.33;;;2.60;99.90;;;;;;4954957;28;20235;-73
2021/12/06 19:38:56;;;;;;;4.97;2.50;;;2.60;99.90;;;;;;4955097;28;20218;-86
2021/12/06 19:41:23;;;;;;;4.30;2.40;;;2.60;99.90;;;;;;4962009;28;20219;-83
2021/12/06 19:43:52;;;;;;;5.87;2.97;;;2.60;99.90;;;;;;4974125;28;20203;-84
2021/12/06 19:46:19;;;;;;;7.73;2.77;;;2.70;99.90;;;;;;4974370;28;20231;-72
2021/12/06 19:48:46;;;;;;;6.07;3.17;;;2.70;99.90;;;;;;4973781;28;20210;-84
2021/12/06 19:51:15;;;;;;;5.80;2.87;;;2.70;99.90;;;;;;4973232;28;20227;-80
2021/12/06 19:53:43;;;;;;;4.57;2.80;;;2.70;99.90;;;;;;4974375;28;20310;-84
2021/12/06 19:56:12;;;;;;;5.27;2.83;;;2.80;99.90;;;;;;4973101;28;20235;-85
2021/12/06 19:58:39;;;;;;;6.20;2.67;;;2.70;99.90;;;;;;4969878;28;20215;-87
2021/12/06 20:01:07;;;;;;;6.10;3.27;;;2.80;99.90;;;;;;4954958;28;20224;-85
2021/12/06 20:03:37;;;;;;;7.00;2.93;;;2.80;99.90;;;;;;4955233;28;20632;-82
2021/12/06 20:06:04;;;;;;;4.13;2.30;;;2.80;99.90;;;;;;4954978;28;20218;-79
2021/12/06 20:08:31;;;;;;;4.60;2.60;;;3.00;99.90;;;;;;4954582;28;20214;-82
2021/12/06 20:10:59;;;;;;;5.07;2.53;;;3.10;99.90;;;;;;4954417;28;20228;-82
2021/12/06 20:13:29;;;;;;;5.03;2.83;;;3.00;99.90;;;;;;4954818;28;20222;-80
2021/12/06 20:15:58;;;;;;;5.70;2.23;;;2.90;99.90;;;;;;4954257;28;20662;-83
2021/12/06 20:18:25;;;;;;;5.17;2.60;;;3.00;99.90;;;;;;4954453;28;20676;-80
2021/12/06 20:20:53;;;;;;;5.60;2.87;;;3.10;99.90;;;;;;4966504;28;20352;-81
2021/12/06 20:23:21;;;;;;;5.00;2.53;;;3.20;99.90;;;;;;4972903;28;20207;-80
2021/12/06 20:25:48;;;;;;;4.27;2.43;;;3.30;99.90;;;;;;4976608;28;20231;-71
2021/12/06 20:28:17;;;;;;;6.30;3.17;;;3.40;99.90;;;;;;4978605;28;20703;-80
2021/12/06 20:30:47;;;;;;;4.77;2.60;;;3.50;99.90;;;;;;4963984;28;20237;-76
2021/12/06 20:33:16;;;;;;;3.83;1.97;;;3.50;99.90;;;;;;4960609;28;20670;-79
2021/12/06 20:35:44;;;;;;;5.80;2.50;;;3.30;99.90;;;;;;4959735;28;20718;-78
2021/12/06 20:38:12;;;;;;;4.53;2.50;;;3.20;99.90;;;;;;4960047;28;20329;-73
2021/12/06 20:40:40;;;;;;;6.53;2.57;;;3.40;99.90;;;;;;4960240;28;20234;-79
2021/12/06 20:43:07;;;;;;;4.67;2.63;;;3.50;99.90;;;;;;4960472;28;20219;-71
2021/12/06 20:45:34;;;;;;;7.47;3.80;;;3.50;99.90;;;;;;4960478;28;20215;-78
2021/12/06 20:48:04;;;;;;;6.73;2.67;;;3.60;99.90;;;;;;4960243;28;20227;-78
2021/12/06 20:50:31;;;;;;;7.93;4.20;;;3.60;99.90;;;;;;4967370;28;20234;-77
2021/12/06 20:52:59;;;;;;;7.47;3.20;;;3.70;99.90;;;;;;4963246;28;20215;-77
2021/12/06 20:55:28;;;;;;;7.50;3.37;;;3.70;99.90;;;;;;4968678;28;20204;-75
2021/12/06 20:57:55;;;;;;;5.43;3.33;;;3.80;99.90;;;;;;4969006;28;20590;-80
2021/12/06 21:00:24;;;;;;;4.57;2.70;;;3.60;99.90;;;;;;4959952;28;20228;-80
2021/12/06 21:02:52;;;;;;;4.73;3.10;;;3.50;99.90;;;;;;4964375;28;20651;-73
2021/12/06 21:05:20;;;;;;;5.23;2.83;;;3.50;99.90;;;;;;4968672;28;20212;-76
2021/12/06 21:07:47;;;;;;;6.50;2.70;;;3.60;99.90;;;;;;4978821;28;20282;-70
2021/12/06 21:10:21;;;;;;;6.57;3.07;;;3.60;99.90;;;;;;4980484;28;20224;-75
2021/12/06 21:13:08;;;;;;;4.60;2.40;;;3.60;99.90;;;;;;4985037;28;20207;-71
2021/12/06 21:18:21;;;;;;;4.87;2.67;;;3.60;99.90;;;;;;4959627;28;20250;-77
2021/12/06 21:20:49;;;;;;;4.00;2.60;;;3.70;99.90;;;;;;4965173;28;20717;-78
2021/12/06 21:23:16;;;;;;;6.37;2.73;;;3.90;99.90;;;;;;4978900;28;20211;-73
2021/12/06 21:25:43;;;;;;;5.43;2.73;;;4.00;99.90;;;;;;4979541;28;20222;-76
2021/12/06 21:28:10;;;;;;;3.90;2.67;;;4.10;99.90;;;;;;4979174;28;20219;-72
2021/12/06 21:30:38;;;;;;;6.37;3.07;;;4.10;99.90;;;;;;4972458;28;20230;-77
2021/12/06 21:33:07;;;;;;;6.10;3.03;;;4.00;99.90;;;;;;4979401;28;20211;-78
2021/12/06 21:35:34;;;;;;;4.80;2.63;;;4.00;99.90;;;;;;4979576;28;20605;-78
2021/12/06 21:38:05;;;;;;;4.73;2.47;;;4.00;99.90;;;;;;4983713;28;20235;-72
2021/12/06 21:40:32;;;;;;;5.47;2.97;;;4.10;99.90;;;;;;4975699;28;20224;-75
2021/12/06 21:42:59;;;;;;;5.00;2.73;;;4.10;99.90;;;;;;4974268;28;20204;-72
2021/12/06 21:45:27;;;;;;;6.97;2.80;;;4.20;99.90;;;;;;4979352;28;20654;-76
2021/12/06 21:47:55;;;;;;;5.97;2.63;;;4.10;99.90;;;;;;4976558;28;20212;-72
2021/12/06 21:50:23;;;;;;;4.90;2.73;;;4.20;99.90;;;;;;4973355;28;20302;-77
2021/12/06 21:52:51;;;;;;;6.77;2.87;;;4.20;99.90;;;;;;4971811;28;20576;-79
2021/12/06 21:55:20;;;;;;;6.33;3.10;;;4.20;99.90;;;;;;4962748;28;20299;-78
2021/12/06 21:57:47;;;;;;;8.30;2.73;;;4.00;99.90;;;;;;4965196;28;20243;-75
2021/12/06 22:00:18;;;;;;;6.33;2.90;;;4.10;99.90;;;;;;4965544;28;20251;-73
2021/12/06 22:02:50;;;;;;;4.47;3.07;;;4.00;99.90;;;;;;4963502;28;20199;-76
2021/12/06 22:05:17;;;;;;;4.63;2.67;;;4.10;99.90;;;;;;4958144;28;20212;-75
2021/12/06 22:07:44;;;;;;;5.13;3.10;;;4.10;99.90;;;;;;4964865;28;20292;-76
2021/12/06 22:10:11;;;;;;;5.10;3.10;;;4.10;99.90;;;;;;4974240;28;20227;-76
2021/12/06 22:12:39;;;;;;;4.93;2.80;;;4.20;99.90;;;;;;4969296;28;20200;-75
2021/12/06 22:15:07;;;;;;;3.67;2.73;;;4.30;99.90;;;;;;4973342;28;20215;-74
2021/12/06 22:17:34;;;;;;;4.13;2.63;;;4.30;99.90;;;;;;4975465;28;20728;-76
2021/12/06 22:20:03;;;;;;;5.40;2.87;;;4.30;99.90;;;;;;4975433;28;20243;-74
2021/12/06 22:22:30;;;;;;;7.17;3.07;;;4.20;99.90;;;;;;4975612;28;20298;-76
2021/12/06 22:24:57;;;;;;;4.17;2.60;;;4.20;99.90;;;;;;4970370;28;20214;-77
2021/12/06 22:27:23;;;;;;;4.00;2.67;;;4.10;99.90;;;;;;4964858;28;20569;-75